createdAt,value
2022-11-03T00:01:43.840Z,4.90
2022-11-03T00:04:13.157Z,4.50
2022-11-03T00:06:41.760Z,4.20
2022-11-03T00:09:11.066Z,4.10
2022-11-03T00:11:39.753Z,4.50
2022-11-03T00:14:07.799Z,4.40
2022-11-03T00:16:34.876Z,4.20
2022-11-03T00:19:01.864Z,4.10
2022-11-03T00:21:28.742Z,4.30
2022-11-03T00:23:55.588Z,4.50
2022-11-03T00:26:24.932Z,4.70
2022-11-03T00:28:54.027Z,4.30
2022-11-03T00:31:25.880Z,4.40
2022-11-03T00:33:53.678Z,4.30
2022-11-03T00:36:31.017Z,4.10
2022-11-03T00:38:57.981Z,4.30
2022-11-03T00:41:26.298Z,4.50
2022-11-03T00:43:53.900Z,4.50
2022-11-03T00:46:22.264Z,4.50
2022-11-03T00:48:49.357Z,4.50
2022-11-03T00:51:16.015Z,4.50
2022-11-03T00:53:55.850Z,4.70
2022-11-03T00:56:31.126Z,4.70
2022-11-03T00:58:59.349Z,4.20
2022-11-03T01:01:28.743Z,4.00
2022-11-03T01:04:16.167Z,3.90
2022-11-03T01:06:51.877Z,3.90
2022-11-03T01:09:30.558Z,3.90
2022-11-03T01:12:13.013Z,4.30
2022-11-03T01:14:42.274Z,4.50
2022-11-03T01:17:14.920Z,4.60
2022-11-03T01:19:41.781Z,4.40
2022-11-03T01:22:10.823Z,4.50
2022-11-03T01:24:40.343Z,4.60
2022-11-03T01:27:07.755Z,4.40
2022-11-03T01:29:34.456Z,4.30
2022-11-03T01:32:01.183Z,4.20
2022-11-03T01:34:27.892Z,4.10
2022-11-03T01:36:54.595Z,4.10
2022-11-03T01:39:21.388Z,4.00
2022-11-03T01:41:50.616Z,4.00
2022-11-03T01:44:17.240Z,4.20
2022-11-03T01:46:57.578Z,4.50
2022-11-03T01:49:42.127Z,4.50
2022-11-03T01:52:19.751Z,4.90
2022-11-03T01:54:51.795Z,4.80
2022-11-03T01:57:24.715Z,4.80
2022-11-03T01:59:53.419Z,4.90
2022-11-03T02:02:26.534Z,4.70
2022-11-03T02:04:55.349Z,4.70
2022-11-03T02:07:33.862Z,4.70
2022-11-03T02:10:01.359Z,4.50
2022-11-03T02:12:28.291Z,4.20
2022-11-03T02:15:07.977Z,4.00
2022-11-03T02:17:35.967Z,3.90
2022-11-03T02:20:13.466Z,4.00
2022-11-03T02:23:06.452Z,4.20
2022-11-03T02:25:48.670Z,4.30
2022-11-03T02:28:18.619Z,4.40
2022-11-03T02:31:19.455Z,4.50
2022-11-03T02:33:53.341Z,4.30
2022-11-03T02:36:22.407Z,4.00
2022-11-03T02:39:05.403Z,4.10
2022-11-03T02:41:35.445Z,4.00
2022-11-03T02:44:04.253Z,3.90
2022-11-03T02:46:32.734Z,4.10
2022-11-03T02:48:59.553Z,4.20
2022-11-03T02:51:26.397Z,4.50
2022-11-03T02:54:18.944Z,4.30
2022-11-03T02:57:09.269Z,4.20
2022-11-03T02:59:47.809Z,4.10
2022-11-03T03:02:22.132Z,3.70
2022-11-03T03:04:53.470Z,3.50
2022-11-03T03:07:26.463Z,3.90
2022-11-03T03:10:17.425Z,3.60
2022-11-03T03:12:50.674Z,3.50
2022-11-03T03:15:20.557Z,3.30
2022-11-03T03:18:00.526Z,3.30
2022-11-03T03:20:33.715Z,3.60
2022-11-03T03:23:23.352Z,3.80
2022-11-03T03:26:04.951Z,4.00
2022-11-03T03:28:47.561Z,4.10
2022-11-03T03:31:17.010Z,4.10
2022-11-03T03:33:47.905Z,4.10
2022-11-03T03:36:18.608Z,4.00
2022-11-03T03:38:50.917Z,4.00
2022-11-03T03:41:22.071Z,4.00
2022-11-03T03:43:55.566Z,4.10
2022-11-03T03:46:24.568Z,4.00
2022-11-03T03:48:51.421Z,4.10
2022-11-03T03:51:22.940Z,4.10
2022-11-03T03:53:53.681Z,4.00
2022-11-03T03:56:25.663Z,3.70
2022-11-03T03:58:52.338Z,3.60
2022-11-03T04:01:19.121Z,3.80
2022-11-03T04:03:45.943Z,3.90
2022-11-03T04:06:12.627Z,3.70
2022-11-03T04:08:39.297Z,3.40
2022-11-03T04:11:24.644Z,3.20
2022-11-03T04:14:10.150Z,3.10
2022-11-03T04:16:55.655Z,3.00
2022-11-03T04:19:40.938Z,2.90
2022-11-03T04:22:17.156Z,3.20
2022-11-03T04:24:45.830Z,3.60
2022-11-03T04:27:18.736Z,3.30
2022-11-03T04:29:45.409Z,3.10
2022-11-03T04:32:16.716Z,3.10
2022-11-03T04:34:47.264Z,3.20
2022-11-03T04:37:14.675Z,3.40
2022-11-03T04:39:41.830Z,3.50
2022-11-03T04:42:19.695Z,3.70
2022-11-03T04:44:47.779Z,4.00
2022-11-03T04:47:15.776Z,4.00
2022-11-03T04:49:43.251Z,4.20
2022-11-03T04:52:23.223Z,4.30
2022-11-03T04:54:52.943Z,4.20
2022-11-03T04:57:19.727Z,4.30
2022-11-03T04:59:49.034Z,4.50
2022-11-03T05:02:18.871Z,4.50
2022-11-03T05:04:45.733Z,4.60
2022-11-03T05:07:26.054Z,4.60
2022-11-03T05:09:52.839Z,4.70
2022-11-03T05:12:20.184Z,4.60
2022-11-03T05:14:47.214Z,4.80
2022-11-03T05:17:22.123Z,4.70
2022-11-03T05:19:50.398Z,4.40
2022-11-03T05:22:20.483Z,4.60
2022-11-03T05:24:47.429Z,4.60
2022-11-03T05:27:20.504Z,4.60
2022-11-03T05:29:48.412Z,4.70
2022-11-03T05:32:24.707Z,4.50
2022-11-03T05:34:55.879Z,4.60
2022-11-03T05:37:29.814Z,4.60
2022-11-03T05:40:02.141Z,4.60
2022-11-03T05:42:31.826Z,4.70
2022-11-03T05:44:59.694Z,4.80
2022-11-03T05:47:32.521Z,4.80
2022-11-03T05:50:17.924Z,4.70
2022-11-03T05:52:46.636Z,4.80
2022-11-03T05:55:25.352Z,4.80
2022-11-03T05:57:53.693Z,4.80
2022-11-03T06:00:33.050Z,4.80
2022-11-03T06:03:00.936Z,4.90
2022-11-03T06:05:28.293Z,5.00
2022-11-03T06:07:59.912Z,4.90
2022-11-03T06:10:33.790Z,5.00
2022-11-03T06:13:05.763Z,5.00
2022-11-03T06:15:35.123Z,5.20
2022-11-03T06:18:19.702Z,5.00
2022-11-03T06:20:56.696Z,4.90
2022-11-03T06:23:24.064Z,4.80
2022-11-03T06:25:53.824Z,4.90
2022-11-03T06:28:25.352Z,4.80
2022-11-03T06:30:52.429Z,5.00
2022-11-03T06:33:33.740Z,5.00
2022-11-03T06:36:18.250Z,5.00
2022-11-03T06:38:50.490Z,5.00
2022-11-03T06:41:24.724Z,5.10
2022-11-03T06:43:52.010Z,5.10
2022-11-03T06:46:20.217Z,5.00
2022-11-03T06:48:46.947Z,5.00
2022-11-03T06:51:25.658Z,5.00
2022-11-03T06:53:54.328Z,5.00
2022-11-03T06:56:28.111Z,5.00
2022-11-03T06:58:56.821Z,5.00
2022-11-03T07:01:31.143Z,5.20
2022-11-03T07:04:12.680Z,5.10
2022-11-03T07:06:39.508Z,5.40
2022-11-03T07:09:11.966Z,5.30
2022-11-03T07:11:44.333Z,5.40
2022-11-03T07:14:21.261Z,5.40
2022-11-03T07:16:56.287Z,5.60
2022-11-03T07:19:34.439Z,5.60
2022-11-03T07:22:04.619Z,5.50
2022-11-03T07:24:36.376Z,5.50
2022-11-03T07:27:21.052Z,5.40
2022-11-03T07:29:49.047Z,5.40
2022-11-03T07:32:24.931Z,5.60
2022-11-03T07:34:53.762Z,5.60
2022-11-03T07:37:24.274Z,5.60
2022-11-03T07:39:51.836Z,5.80
2022-11-03T07:42:24.279Z,6.10
2022-11-03T07:44:55.571Z,6.10
2022-11-03T07:47:27.527Z,6.10
2022-11-03T07:49:57.584Z,6.20
2022-11-03T07:52:26.563Z,6.20
2022-11-03T07:54:57.138Z,6.70
2022-11-03T07:57:27.991Z,6.70
2022-11-03T07:59:58.391Z,6.80
2022-11-03T08:02:41.368Z,6.80
2022-11-03T08:05:09.047Z,7.00
2022-11-03T08:07:35.791Z,7.00
2022-11-03T08:10:02.546Z,7.30
2022-11-03T08:12:29.361Z,7.40
2022-11-03T08:14:56.050Z,7.10
2022-11-03T08:17:22.786Z,6.90
2022-11-03T08:19:49.529Z,7.20
2022-11-03T08:22:16.204Z,7.10
2022-11-03T08:24:42.882Z,6.90
2022-11-03T08:27:09.594Z,7.30
2022-11-03T08:29:36.355Z,7.40
2022-11-03T08:32:03.212Z,7.40
2022-11-03T08:34:29.904Z,7.50
2022-11-03T08:36:56.659Z,7.60
2022-11-03T08:39:23.379Z,7.70
2022-11-03T08:41:50.103Z,7.80
2022-11-03T08:44:17.037Z,7.60
2022-11-03T08:46:49.421Z,7.90
2022-11-03T08:49:16.109Z,8.20
2022-11-03T08:51:44.554Z,8.00
2022-11-03T08:54:11.648Z,7.80
2022-11-03T08:56:38.390Z,7.60
2022-11-03T08:59:05.064Z,7.80
2022-11-03T09:01:31.923Z,7.70
2022-11-03T09:03:58.783Z,7.90
2022-11-03T09:06:25.608Z,8.00
2022-11-03T09:11:39.089Z,8.30
2022-11-03T09:14:05.832Z,8.30
2022-11-03T09:16:32.514Z,8.30
2022-11-03T09:18:59.271Z,8.30
2022-11-03T09:21:25.986Z,8.50
2022-11-03T09:23:52.734Z,8.70
2022-11-03T09:26:20.125Z,8.70
2022-11-03T09:28:47.027Z,8.90
2022-11-03T09:31:13.821Z,9.00
2022-11-03T09:33:40.582Z,9.10
2022-11-03T09:36:07.604Z,9.10
2022-11-03T09:38:34.356Z,9.20
2022-11-03T09:41:02.168Z,9.40
2022-11-03T09:43:29.005Z,9.40
2022-11-03T09:45:55.770Z,9.50
2022-11-03T09:48:22.471Z,9.50
2022-11-03T09:50:53.552Z,9.70
2022-11-03T09:53:21.248Z,9.90
2022-11-03T09:55:47.929Z,10.40
2022-11-03T09:58:16.840Z,13.00
2022-11-03T10:00:44.640Z,14.90
2022-11-03T10:03:17.260Z,14.10
2022-11-03T10:05:47.880Z,12.60
2022-11-03T10:08:26.365Z,13.30
2022-11-03T10:10:54.200Z,13.30
2022-11-03T10:13:33.258Z,12.40
2022-11-03T10:16:02.126Z,12.30
2022-11-03T10:18:29.200Z,12.20
2022-11-03T10:20:56.501Z,11.80
2022-11-03T10:23:23.206Z,12.00
2022-11-03T10:25:49.956Z,11.90
2022-11-03T10:28:29.254Z,12.20
2022-11-03T10:31:17.296Z,12.50
2022-11-03T10:33:55.173Z,12.40
2022-11-03T10:36:32.957Z,12.50
2022-11-03T10:39:08.094Z,12.40
2022-11-03T10:41:34.791Z,12.70
2022-11-03T10:44:08.189Z,12.70
2022-11-03T10:46:51.528Z,12.60
2022-11-03T10:49:20.119Z,12.70
2022-11-03T10:51:49.590Z,12.60
2022-11-03T10:54:18.619Z,12.80
2022-11-03T10:56:47.024Z,12.80
2022-11-03T10:59:19.355Z,12.80
2022-11-03T11:01:46.507Z,12.50
2022-11-03T11:04:17.986Z,12.60
2022-11-03T11:06:46.034Z,12.70
2022-11-03T11:09:17.296Z,12.70
2022-11-03T11:12:06.962Z,12.80
2022-11-03T11:14:39.470Z,12.90
2022-11-03T11:17:26.783Z,12.70
2022-11-03T11:20:22.314Z,12.80
2022-11-03T11:22:50.476Z,12.80
2022-11-03T11:25:20.529Z,12.80
2022-11-03T11:27:47.180Z,12.60
2022-11-03T11:30:19.903Z,12.80
2022-11-03T11:32:46.613Z,13.00
2022-11-03T11:35:16.273Z,12.80
2022-11-03T11:37:43.599Z,12.80
2022-11-03T11:40:25.664Z,12.80
2022-11-03T11:43:04.749Z,12.60
2022-11-03T11:46:09.836Z,12.60
2022-11-03T11:48:36.936Z,12.70
2022-11-03T11:51:04.411Z,12.90
2022-11-03T11:53:40.266Z,13.00
2022-11-03T11:56:13.927Z,13.00
2022-11-03T11:58:51.494Z,12.90
2022-11-03T12:01:32.573Z,12.70
2022-11-03T12:04:15.017Z,12.70
2022-11-03T12:06:42.475Z,12.70
2022-11-03T12:09:17.068Z,12.60
2022-11-03T12:11:48.301Z,12.70
2022-11-03T12:14:21.932Z,12.70
2022-11-03T12:16:48.889Z,12.80
2022-11-03T12:19:45.096Z,12.90
2022-11-03T12:22:32.825Z,13.10
2022-11-03T12:25:06.721Z,13.20
2022-11-03T12:27:33.998Z,13.00
2022-11-03T12:30:03.643Z,13.00
2022-11-03T12:32:34.063Z,13.10
2022-11-03T12:35:06.417Z,13.00
2022-11-03T12:37:33.165Z,12.90
2022-11-03T12:39:59.955Z,13.00
2022-11-03T12:42:26.642Z,12.90
2022-11-03T12:44:53.485Z,12.90
2022-11-03T12:47:20.776Z,12.80
2022-11-03T12:49:48.137Z,12.70
2022-11-03T12:52:14.985Z,12.50
2022-11-03T12:54:42.411Z,12.30
2022-11-03T12:57:09.352Z,12.50
2022-11-03T12:59:36.157Z,12.60
2022-11-03T13:02:02.991Z,12.60
2022-11-03T13:04:29.815Z,12.50
2022-11-03T13:06:59.542Z,12.60
2022-11-03T13:09:26.451Z,12.50
2022-11-03T13:12:11.921Z,12.50
2022-11-03T13:14:38.684Z,12.60
2022-11-03T13:17:05.425Z,12.50
2022-11-03T13:19:32.172Z,12.50
2022-11-03T13:21:58.908Z,12.50
2022-11-03T13:24:25.659Z,12.50
2022-11-03T13:26:52.388Z,12.50
2022-11-03T13:29:19.459Z,12.40
2022-11-03T13:31:46.189Z,12.20
2022-11-03T13:34:12.892Z,12.20
2022-11-03T13:36:39.815Z,12.30
2022-11-03T13:39:06.557Z,12.10
2022-11-03T13:41:33.321Z,12.10
2022-11-03T13:44:00.036Z,12.10
2022-11-03T13:46:26.775Z,12.20
2022-11-03T13:49:51.191Z,11.90
2022-11-03T13:51:40.748Z,11.80
2022-11-03T13:59:40.854Z,11.80
2022-11-03T14:04:54.641Z,11.60
2022-11-03T14:07:21.665Z,11.70
2022-11-03T14:09:48.370Z,11.70
2022-11-03T14:12:34.444Z,11.80
2022-11-03T14:15:04.120Z,11.70
2022-11-03T14:17:31.101Z,11.60
2022-11-03T14:20:03.807Z,11.60
2022-11-03T14:22:31.751Z,11.50
2022-11-03T14:24:58.568Z,11.50
2022-11-03T14:27:25.433Z,11.50
2022-11-03T14:29:52.247Z,11.60
2022-11-03T14:32:20.160Z,11.60
2022-11-03T14:34:47.915Z,11.30
2022-11-03T14:37:15.141Z,11.30
2022-11-03T14:39:42.165Z,11.20
2022-11-03T14:42:14.896Z,11.20
2022-11-03T14:44:42.544Z,11.00
2022-11-03T14:47:11.038Z,10.90
2022-11-03T14:49:38.151Z,10.80
2022-11-03T14:52:07.384Z,10.90
2022-11-03T14:54:35.301Z,10.80
2022-11-03T14:57:02.611Z,10.80
2022-11-03T14:59:29.617Z,10.80
2022-11-03T15:01:57.756Z,10.90
2022-11-03T15:04:25.386Z,10.80
2022-11-03T15:06:52.214Z,10.80
2022-11-03T15:09:19.557Z,10.70
2022-11-03T15:11:46.640Z,10.80
2022-11-03T15:14:13.755Z,10.60
2022-11-03T15:16:40.593Z,10.60
2022-11-03T15:19:08.001Z,10.70
2022-11-03T15:21:35.404Z,10.50
2022-11-03T15:26:50.726Z,10.50
2022-11-03T15:29:17.504Z,10.50
2022-11-03T15:31:47.973Z,10.30
2022-11-03T15:34:15.939Z,10.40
2022-11-03T15:36:42.685Z,10.30
2022-11-03T15:39:09.674Z,10.40
2022-11-03T15:41:36.511Z,10.30
2022-11-03T15:44:03.503Z,10.30
2022-11-03T15:46:30.646Z,10.30
2022-11-03T15:48:57.611Z,10.20
2022-11-03T15:51:24.818Z,10.20
2022-11-03T15:53:57.845Z,10.10
2022-11-03T15:56:26.209Z,10.10
2022-11-03T15:58:52.885Z,10.00
2022-11-03T16:01:20.458Z,9.80
2022-11-03T16:03:47.359Z,9.70
2022-11-03T16:06:14.035Z,9.90
2022-11-03T16:08:40.790Z,9.80
2022-11-03T16:11:07.483Z,9.90
2022-11-03T16:13:34.283Z,9.90
2022-11-03T16:16:00.974Z,9.70
2022-11-03T16:18:27.658Z,9.70
2022-11-03T16:20:54.376Z,9.70
2022-11-03T16:23:21.114Z,9.70
2022-11-03T16:25:47.987Z,9.80
2022-11-03T16:28:14.724Z,9.90
2022-11-03T16:30:41.538Z,9.90
2022-11-03T16:33:08.708Z,10.00
2022-11-03T16:35:35.431Z,10.00
2022-11-03T16:38:02.372Z,10.00
2022-11-03T16:40:29.530Z,9.80
2022-11-03T16:42:56.211Z,9.90
2022-11-03T16:45:26.473Z,9.90
2022-11-03T16:47:53.546Z,9.70
2022-11-03T16:50:20.414Z,9.60
2022-11-03T16:52:48.527Z,9.70
2022-11-03T16:55:17.227Z,9.70
2022-11-03T16:57:44.695Z,9.70
2022-11-03T17:00:16.969Z,9.60
2022-11-03T17:02:44.268Z,9.70
2022-11-03T17:05:12.178Z,9.70
2022-11-03T17:07:39.528Z,9.70
2022-11-03T17:10:07.129Z,9.70
2022-11-03T17:12:33.850Z,9.80
2022-11-03T17:15:00.591Z,9.80
2022-11-03T17:17:27.381Z,9.60
2022-11-03T17:19:54.139Z,9.50
2022-11-03T17:22:22.228Z,9.50
2022-11-03T17:24:49.323Z,9.50
2022-11-03T17:27:32.939Z,9.50
2022-11-03T17:30:04.203Z,9.40
2022-11-03T17:32:37.154Z,9.40
2022-11-03T17:35:08.156Z,9.10
2022-11-03T17:37:35.169Z,9.20
2022-11-03T17:40:01.914Z,9.40
2022-11-03T17:42:29.101Z,9.20
2022-11-03T17:45:00.720Z,9.10
2022-11-03T17:47:33.772Z,9.00
2022-11-03T17:50:00.652Z,9.00
2022-11-03T17:52:30.636Z,9.30
2022-11-03T17:54:59.179Z,9.10
2022-11-03T17:57:27.245Z,9.00
2022-11-03T18:00:23.990Z,8.90
2022-11-03T18:03:19.100Z,8.90
2022-11-03T18:05:46.050Z,9.00
2022-11-03T18:08:18.067Z,8.90
2022-11-03T18:10:48.654Z,8.80
2022-11-03T18:13:33.998Z,9.00
2022-11-03T18:16:12.469Z,9.10
2022-11-03T18:18:44.403Z,9.10
2022-11-03T18:21:16.199Z,9.20
2022-11-03T18:23:43.225Z,9.30
2022-11-03T18:26:17.234Z,9.30
2022-11-03T18:28:45.483Z,9.20
2022-11-03T18:31:34.232Z,9.10
2022-11-03T18:34:14.188Z,9.10
2022-11-03T18:36:41.071Z,9.10
2022-11-03T18:39:11.045Z,9.10
2022-11-03T18:41:40.623Z,9.10
2022-11-03T18:44:35.683Z,9.10
2022-11-03T18:47:02.455Z,9.10
2022-11-03T18:49:33.002Z,9.20
2022-11-03T18:52:03.791Z,9.30
2022-11-03T18:54:32.581Z,9.20
2022-11-03T18:57:00.101Z,9.30
2022-11-03T18:59:30.814Z,9.20
2022-11-03T19:01:58.129Z,9.10
2022-11-03T19:04:24.886Z,9.10
2022-11-03T19:06:53.169Z,9.20
2022-11-03T19:09:26.272Z,9.20
2022-11-03T19:11:56.198Z,9.30
2022-11-03T19:14:31.674Z,9.30
2022-11-03T19:19:47.805Z,9.20
2022-11-03T19:22:17.597Z,9.20
2022-11-03T19:24:45.147Z,9.20
2022-11-03T19:27:18.668Z,9.40
2022-11-03T19:29:47.039Z,9.30
2022-11-03T19:32:22.582Z,9.40
2022-11-03T19:35:01.157Z,9.30
2022-11-03T19:37:34.127Z,9.40
2022-11-03T19:40:02.847Z,9.50
2022-11-03T19:42:31.784Z,9.50
2022-11-03T19:45:18.727Z,9.50
2022-11-03T19:48:18.300Z,9.50
2022-11-03T19:50:37.008Z,9.50
2022-11-03T19:53:06.207Z,9.40
2022-11-03T19:55:36.301Z,9.40
2022-11-03T19:58:15.890Z,9.40
2022-11-03T20:00:44.752Z,9.40
2022-11-03T20:03:11.804Z,9.40
2022-11-03T20:05:39.624Z,9.40
2022-11-03T20:08:11.570Z,9.20
2022-11-03T20:10:39.121Z,9.10
2022-11-03T20:13:08.207Z,9.20
2022-11-03T20:15:35.592Z,9.30
2022-11-03T20:18:02.309Z,9.40
2022-11-03T20:20:34.250Z,9.40
2022-11-03T20:23:01.942Z,9.40
2022-11-03T20:25:33.674Z,9.40
2022-11-03T20:28:01.280Z,9.40
2022-11-03T20:30:29.156Z,9.50
2022-11-03T20:32:55.916Z,9.50
2022-11-03T20:35:25.871Z,9.40
2022-11-03T20:37:56.915Z,9.40
2022-11-03T20:40:26.119Z,9.40
2022-11-03T20:43:02.501Z,9.30
2022-11-03T20:45:31.995Z,9.40
2022-11-03T20:47:58.876Z,9.30
2022-11-03T20:50:26.351Z,9.30
2022-11-03T20:52:54.207Z,9.30
2022-11-03T20:55:22.751Z,9.20
2022-11-03T20:57:50.513Z,9.20
2022-11-03T21:00:24.057Z,9.10
2022-11-03T21:02:51.921Z,9.20
2022-11-03T21:05:24.453Z,9.20
2022-11-03T21:07:51.503Z,9.20
2022-11-03T21:10:20.853Z,9.10
2022-11-03T21:12:48.175Z,9.20
2022-11-03T21:16:03.756Z,9.10
2022-11-03T21:18:48.358Z,9.10
2022-11-03T21:21:20.807Z,9.20
2022-11-03T21:23:48.008Z,9.20
2022-11-03T21:26:14.768Z,9.30
2022-11-03T21:28:41.596Z,9.30
2022-11-03T21:31:12.925Z,9.30
2022-11-03T21:33:39.651Z,9.30
2022-11-03T21:36:06.627Z,9.20
2022-11-03T21:38:33.365Z,9.20
2022-11-03T21:41:18.644Z,9.30
2022-11-03T21:44:03.836Z,9.30
2022-11-03T21:46:30.570Z,9.30
2022-11-03T21:49:15.690Z,9.30
2022-11-03T21:51:42.407Z,9.30
2022-11-03T21:54:09.130Z,9.30
2022-11-03T21:56:35.828Z,9.20
2022-11-03T21:59:02.540Z,9.20
2022-11-03T22:01:29.354Z,9.20
2022-11-03T22:03:56.772Z,9.20
2022-11-03T22:06:23.668Z,9.40
2022-11-03T22:08:50.379Z,9.40
2022-11-03T22:11:24.987Z,9.40
2022-11-03T22:13:55.526Z,9.40
2022-11-03T22:16:39.702Z,9.50
2022-11-03T22:19:24.816Z,9.50
2022-11-03T22:22:10.311Z,9.50
2022-11-03T22:24:55.725Z,9.50
2022-11-03T22:27:22.498Z,9.40
2022-11-03T22:30:08.343Z,9.40
2022-11-03T22:32:35.976Z,9.40
2022-11-03T22:35:22.784Z,9.50
2022-11-03T22:38:07.543Z,9.50
2022-11-03T22:40:54.200Z,9.30
2022-11-03T22:43:41.176Z,9.40
2022-11-03T22:46:09.864Z,9.50
2022-11-03T22:48:37.219Z,9.60
2022-11-03T22:51:11.210Z,9.70
2022-11-03T22:53:57.020Z,9.60
2022-11-03T22:56:25.475Z,9.70
2022-11-03T22:58:52.667Z,9.60
2022-11-03T23:01:22.676Z,9.50
2022-11-03T23:03:50.103Z,9.50
2022-11-03T23:06:19.838Z,9.50
2022-11-03T23:08:48.123Z,9.40
2022-11-03T23:11:22.056Z,9.40
2022-11-03T23:13:58.795Z,9.40
2022-11-03T23:16:34.471Z,9.50
2022-11-03T23:19:20.233Z,9.60
2022-11-03T23:21:49.011Z,9.70
2022-11-03T23:24:34.675Z,9.80
2022-11-03T23:27:02.369Z,9.90
2022-11-03T23:29:29.547Z,10.00
2022-11-03T23:31:58.354Z,10.20
2022-11-03T23:34:25.543Z,10.30
2022-11-03T23:36:52.678Z,10.40
2022-11-03T23:39:20.768Z,10.40
2022-11-03T23:41:48.622Z,10.50
2022-11-03T23:44:16.148Z,10.60
2022-11-03T23:47:02.125Z,10.80
2022-11-03T23:49:28.902Z,10.80
2022-11-03T23:51:55.818Z,11.00
2022-11-03T23:54:22.580Z,10.90
2022-11-03T23:57:07.806Z,10.80
2022-11-03T23:59:34.985Z,10.90
